Carman, Canada
Current Conditions -  °F | °C
As of 10:00 AM on Friday 31 Oct 2014 (Local Time) from CYPG Reporting Station
Broken Clouds Broken Clouds  
Wind Chill: 16°   Ceiling: 22000
Heat Index: 25°   Visibility: 15mi
Dew Point: 19°   Wind: 8mph
Humidity: 80%   Direction: 170°S
Pressure: 30.55"   Gusts: NA
Location:  49.51°N, 98°W
Report Text: CYPG 311500Z 17007KT 15SM BKN220 M04/M07 A3055 RMK CI2 SLP362
Loading
Personal Weather Stations






























Interactive Weather Map New forecast layout! Learn more

10-Day Weather Forecast

Advertisements
Track Severe Weather on mobile